Time;durP1;ratioP1;P1;durP2;ratioP2;P2;SDS_P1;SDS_P2;PMS_P1;PMS_P2;Temp;Humidity;BMP_temperature;BMP_pressure;BME280_temperature;BME280_humidity;BME280_pressure;Samples;Min_cycle;Max_cycle;Signal;HPM_P1;HPM_P2
2022/05/01 00:04:17;;;;;;;18.40;10.40;;;;;;;5.70;52.56;99122.02;432537;1273;99253;-42
2022/05/01 00:14:24;;;;;;;19.40;10.20;;;;;;;6.01;52.91;99118.21;432568;1270;112309;-41
2022/05/01 00:24:31;;;;;;;27.40;14.60;;;;;;;6.06;53.11;99113.05;432618;1270;108859;-41
2022/05/01 00:45:02;;;;;;;18.40;8.90;;;;;;;6.53;53.13;99105.48;432504;1270;108817;-43
2022/05/01 00:55:11;;;;;;;19.20;8.30;;;;;;;6.92;52.75;99099.94;432529;1270;98031;-44
2022/05/01 01:05:18;;;;;;;19.10;9.40;;;;;;;7.30;52.26;99092.83;432577;1270;112582;-42
2022/05/01 01:15:28;;;;;;;11.70;7.60;;;;;;;7.47;51.90;99086.38;432582;1269;108865;-45
2022/05/01 01:25:36;;;;;;;13.30;7.60;;;;;;;7.42;51.82;99083.24;432713;1270;98034;-45
2022/05/01 01:35:44;;;;;;;15.90;7.00;;;;;;;7.35;51.68;99082.70;433168;1258;112008;-44
2022/05/01 01:45:52;;;;;;;12.00;7.60;;;;;;;7.21;51.83;99078.27;432595;1270;108806;-41
2022/05/01 01:56:00;;;;;;;13.50;6.80;;;;;;;7.15;51.89;99067.62;432530;1270;98017;-46
2022/05/01 02:06:05;;;;;;;15.80;8.30;;;;;;;7.12;51.76;99063.95;432527;1270;112485;-42
2022/05/01 02:16:12;;;;;;;24.30;12.20;;;;;;;6.56;52.12;99070.22;432655;1270;108756;-42
2022/05/01 02:26:19;;;;;;;28.40;14.40;;;;;;;5.72;52.43;99071.19;432538;1270;98038;-44
2022/05/01 02:36:27;;;;;;;37.60;17.90;;;;;;;5.01;53.57;99069.89;432581;1270;112560;-42
2022/05/01 02:46:34;;;;;;;33.90;16.50;;;;;;;4.67;54.30;99064.38;432524;1270;108800;-42
2022/05/01 02:56:41;;;;;;;21.10;11.80;;;;;;;4.44;55.03;99063.61;432529;1270;99276;-41
2022/05/01 03:06:48;;;;;;;24.40;13.70;;;;;;;4.39;55.42;99061.69;432719;1270;111090;-43
2022/05/01 03:16:56;;;;;;;24.40;13.30;;;;;;;4.18;55.86;99063.27;432448;1270;107775;-43
2022/05/01 03:27:03;;;;;;;33.30;17.60;;;;;;;4.09;56.44;99067.31;432524;1270;99276;-45
2022/05/01 03:37:10;;;;;;;36.10;17.50;;;;;;;4.06;56.82;99067.35;432632;1270;107970;-41
2022/05/01 03:47:17;;;;;;;32.20;17.90;;;;;;;4.12;57.39;99065.39;432522;1270;99267;-40
2022/05/01 03:57:24;;;;;;;30.70;17.40;;;;;;;4.29;57.65;99063.20;432453;1270;112441;-45
2022/05/01 04:07:32;;;;;;;33.30;17.90;;;;;;;4.67;58.12;99061.19;432579;1270;108827;-41
2022/05/01 04:17:40;;;;;;;28.90;16.80;;;;;;;5.25;58.10;99064.36;432543;1269;99261;-41
2022/05/01 04:27:51;;;;;;;34.10;18.50;;;;;;;6.71;58.03;99065.83;432617;1271;112501;-44
2022/05/01 04:48:04;;;;;;;29.50;17.00;;;;;;;10.36;55.63;99055.56;432574;1271;98847;-45
2022/05/01 05:18:46;;;;;;;34.00;21.10;;;;;;;13.27;52.48;99062.52;432426;1270;99247;-45
2022/05/01 05:28:53;;;;;;;41.40;23.70;;;;;;;14.27;51.91;99062.61;432585;1270;108187;-44
2022/05/01 05:39:01;;;;;;;36.40;24.00;;;;;;;14.88;50.77;99065.70;432607;1270;99420;-41
2022/05/01 05:49:09;;;;;;;44.50;24.80;;;;;;;15.18;49.81;99068.52;432615;1270;112828;-41
2022/05/01 05:59:15;;;;;;;37.90;24.50;;;;;;;15.38;49.22;99066.61;432710;1270;108519;-42
2022/05/01 06:09:22;;;;;;;39.30;25.00;;;;;;;16.06;48.65;99064.45;432640;1270;97980;-43
2022/05/01 06:19:29;;;;;;;45.40;26.50;;;;;;;16.68;47.96;99069.67;432471;1270;407726;-43
2022/05/01 06:29:36;;;;;;;14.80;9.60;;;;;;;16.93;46.68;99071.68;432670;1270;99254;-44
2022/05/01 06:39:44;;;;;;;15.30;9.90;;;;;;;16.72;44.65;99063.51;432464;1270;112823;-44
2022/05/01 06:49:51;;;;;;;15.40;10.00;;;;;;;16.24;42.42;99071.23;432672;1271;107822;-41
2022/05/01 06:59:59;;;;;;;16.70;10.30;;;;;;;15.88;42.00;99075.58;432489;1270;97959;-42
2022/05/01 07:10:08;;;;;;;19.80;10.80;;;;;;;16.01;41.61;99076.85;432583;1271;108208;-41
2022/05/01 07:20:12;;;;;;;;;;;;;;;16.14;40.92;99074.73;432591;1270;99286;-45
2022/05/01 07:30:22;;;;;;;16.60;11.30;;;;;;;16.18;40.95;99073.20;432501;1271;112205;-42
2022/05/01 07:40:29;;;;;;;14.90;11.20;;;;;;;16.32;40.28;99070.00;432690;1270;108755;-43
2022/05/01 07:50:36;;;;;;;19.40;11.50;;;;;;;16.54;39.88;99072.83;432463;1271;99286;-47
2022/05/01 08:00:44;;;;;;;14.10;11.10;;;;;;;17.17;39.73;99065.31;432686;1270;108215;-44
2022/05/01 08:10:51;;;;;;;16.10;10.20;;;;;;;17.41;38.89;99065.13;432595;1271;98388;-42
2022/05/01 08:31:15;;;;;;;19.10;11.50;;;;;;;17.70;37.76;99051.84;432408;1271;109240;-42
2022/05/01 08:51:30;;;;;;;15.40;9.20;;;;;;;17.66;36.16;99039.47;432502;1268;108822;-45
2022/05/01 09:01:39;;;;;;;13.40;8.50;;;;;;;18.09;36.29;99028.42;432562;1270;99145;-46
2022/05/01 09:22:15;;;;;;;13.10;8.30;;;;;;;18.53;35.17;99030.70;432574;1270;108881;-42
2022/05/01 09:32:21;;;;;;;13.00;8.40;;;;;;;18.87;34.67;99025.45;432672;1270;99312;-43
2022/05/01 09:42:34;;;;;;;11.90;8.70;;;;;;;18.93;34.41;99015.45;432584;1270;108812;-46
2022/05/01 09:53:00;;;;;;;12.70;8.00;;;;;;;18.98;33.64;99012.16;432538;1270;98056;-45
2022/05/01 10:03:24;;;;;;;12.10;8.40;;;;;;;18.99;33.35;99007.61;432517;1270;111582;-45
2022/05/01 10:13:32;;;;;;;12.30;7.40;;;;;;;19.06;33.23;99005.95;432485;1270;108640;-46
2022/05/01 10:23:44;;;;;;;10.80;7.30;;;;;;;19.61;33.36;98994.96;432679;1270;99340;-46
2022/05/01 10:33:53;;;;;;;10.30;7.20;;;;;;;20.52;33.95;98981.38;432416;1270;107345;-45
2022/05/01 10:44:28;;;;;;;13.40;7.20;;;;;;;20.40;32.81;98980.21;432614;1270;99289;-42
2022/05/01 10:54:39;;;;;;;12.10;6.90;;;;;;;20.44;33.04;98972.48;432550;1270;112578;-45
2022/05/01 11:04:46;;;;;;;8.10;5.00;;;;;;;20.31;32.19;98967.00;432459;1270;108266;-40
2022/05/01 11:14:51;;;;;;;10.20;5.60;;;;;;;20.56;31.35;98963.04;432572;1270;98850;-42
2022/05/01 11:24:59;;;;;;;7.30;5.00;;;;;;;20.72;31.01;98954.08;432465;1270;109687;-44
2022/05/01 11:35:04;;;;;;;5.70;5.10;;;;;;;20.40;29.88;98949.48;432468;1270;99136;-41
2022/05/01 11:45:12;;;;;;;6.80;4.00;;;;;;;20.38;30.35;98940.12;432629;1270;112372;-45
2022/05/01 11:55:21;;;;;;;7.10;4.10;;;;;;;20.51;29.61;98933.10;432487;1270;109691;-41
2022/05/01 12:05:29;;;;;;;5.60;3.90;;;;;;;20.72;29.51;98934.78;432503;1270;99586;-45
2022/05/01 12:15:37;;;;;;;5.70;4.40;;;;;;;20.54;28.89;98933.80;432577;1269;108813;-41
2022/05/01 12:25:46;;;;;;;7.90;4.20;;;;;;;20.76;29.68;98921.39;432516;1270;99247;-41
2022/05/01 12:45:57;;;;;;;9.10;4.10;;;;;;;21.04;29.25;98904.73;432540;1270;107982;-42
2022/05/01 12:56:17;;;;;;;4.80;4.40;;;;;;;21.04;28.83;98900.97;432632;1270;98017;-44
2022/05/01 13:06:25;;;;;;;8.90;4.20;;;;;;;21.02;29.16;98882.75;432556;1270;108799;-47
2022/05/01 13:26:47;;;;;;;6.30;4.60;;;;;;;20.50;29.43;98881.70;432493;1271;111902;-44
2022/05/01 13:36:54;;;;;;;8.50;4.20;;;;;;;20.28;29.70;98870.45;432490;1270;109491;-43
2022/05/01 13:47:04;;;;;;;5.70;4.50;;;;;;;20.08;29.45;98861.44;432552;1270;98962;-39
2022/05/01 14:07:15;;;;;;;4.60;3.90;;;;;;;19.85;30.03;98857.84;432547;1270;98033;-44
2022/05/01 14:17:23;;;;;;;7.20;4.30;;;;;;;20.10;29.81;98845.48;432583;1270;112880;-47
2022/05/01 14:27:30;;;;;;;6.20;3.90;;;;;;;19.99;29.42;98848.94;432607;1270;108818;-43
2022/05/01 14:37:37;;;;;;;5.50;4.40;;;;;;;19.80;29.62;98845.05;432575;1270;99270;-42
2022/05/01 15:08:04;;;;;;;9.10;4.50;;;;;;;19.21;30.28;98832.40;432617;1270;112589;-42
2022/05/01 15:18:14;;;;;;;8.20;4.80;;;;;;;19.19;30.16;98829.56;432654;1270;108873;-46
2022/05/01 15:28:22;;;;;;;9.20;4.70;;;;;;;19.24;30.30;98825.19;432623;1270;98358;-43
2022/05/01 15:38:30;;;;;;;5.50;4.90;;;;;;;19.25;30.22;98820.94;432581;1270;109695;-44
2022/05/01 15:59:03;;;;;;;12.00;4.90;;;;;;;19.05;30.69;98812.20;432612;1269;113223;-41
2022/05/01 16:09:14;;;;;;;7.90;5.40;;;;;;;18.91;30.96;98803.84;432508;1270;107518;-40
2022/05/01 16:19:23;;;;;;;8.10;4.20;;;;;;;18.74;30.75;98803.27;432574;1270;98056;-45
2022/05/01 16:29:29;;;;;;;8.50;4.70;;;;;;;18.55;30.85;98794.90;432560;1270;108836;-41
2022/05/01 16:39:38;;;;;;;8.00;4.50;;;;;;;18.34;30.72;98790.79;432420;1270;99267;-46
2022/05/01 16:49:47;;;;;;;9.20;5.80;;;;;;;18.12;30.75;98796.67;432592;1270;112355;-47
2022/05/01 17:10:03;;;;;;;;;;;;;;;17.60;31.42;98809.82;432432;1270;99258;-40
2022/05/01 17:20:14;;;;;;;9.90;5.60;;;;;;;17.39;31.77;98810.21;432509;1269;108566;-43
2022/05/01 17:30:21;;;;;;;8.10;5.40;;;;;;;17.15;32.21;98819.86;432565;1270;99260;-42
2022/05/01 17:40:29;;;;;;;11.30;6.10;;;;;;;16.91;32.65;98818.13;432590;1270;112575;-45
2022/05/01 17:50:36;;;;;;;11.80;6.80;;;;;;;16.58;32.95;98826.40;432470;1270;107811;-41
2022/05/01 18:00:42;;;;;;;11.60;6.50;;;;;;;16.10;33.71;98830.98;432685;1270;97973;-45
2022/05/01 18:10:50;;;;;;;12.70;7.80;;;;;;;15.59;34.86;98839.23;432548;1268;108882;-43
2022/05/01 18:20:55;;;;;;;16.40;8.50;;;;;;;15.07;35.75;98842.91;432378;1270;326996;-44
2022/05/01 18:31:11;;;;;;;13.40;9.00;;;;;;;14.43;36.51;98850.61;432550;1270;112157;-44
2022/05/01 18:41:28;;;;;;;18.90;10.40;;;;;;;13.91;37.80;98859.44;432604;1270;108998;-41
2022/05/01 18:51:38;;;;;;;16.20;10.10;;;;;;;13.44;39.05;98871.54;432641;1270;98032;-47
2022/05/01 19:01:47;;;;;;;23.60;13.60;;;;;;;12.99;39.84;98873.65;432529;1270;108876;-44
2022/05/01 19:12:25;;;;;;;;;;;;;;;12.65;40.68;98878.61;432545;1270;98033;-44
2022/05/01 19:22:36;;;;;;;18.70;12.30;;;;;;;12.37;41.70;98881.20;431097;1276;112495;-45
2022/05/01 19:33:05;;;;;;;68.90;23.10;;;;;;;12.09;42.54;98888.56;431115;1276;108372;-44
2022/05/01 19:43:18;;;;;;;42.10;20.60;;;;;;;11.75;43.11;98890.02;430999;1276;98148;-44
2022/05/01 20:03:34;;;;;;;93.60;39.00;;;;;;;11.12;44.88;98891.59;432538;1270;98060;-41
2022/05/01 20:23:51;;;;;;;76.20;36.70;;;;;;;10.60;46.18;98890.61;432518;1269;108309;-43
2022/05/01 20:34:02;;;;;;;82.60;38.80;;;;;;;10.31;46.75;98884.66;432491;1270;98037;-44
2022/05/01 20:44:12;;;;;;;81.00;39.60;;;;;;;9.96;47.03;98890.54;432478;1271;109036;-41
2022/05/01 20:54:22;;;;;;;70.80;33.00;;;;;;;9.72;47.86;98893.83;432536;1270;99258;-43
2022/05/01 21:04:31;;;;;;;60.50;32.30;;;;;;;10.01;48.75;98899.23;432563;1270;112376;-45
2022/05/01 21:14:38;;;;;;;66.80;33.60;;;;;;;10.08;49.14;98893.06;432600;1270;107257;-43
2022/05/01 21:24:46;;;;;;;56.10;31.60;;;;;;;9.96;49.48;98886.04;432548;1273;97963;-41
2022/05/01 21:34:54;;;;;;;58.00;33.50;;;;;;;9.77;50.00;98887.09;432572;1270;112450;-43
2022/05/01 21:45:01;;;;;;;60.20;31.90;;;;;;;9.54;50.18;98888.46;432571;1270;109228;-44
2022/05/01 21:55:10;;;;;;;51.60;30.60;;;;;;;9.23;50.46;98879.83;432504;1270;98036;-45
2022/05/01 22:05:17;;;;;;;46.80;28.40;;;;;;;9.04;50.80;98873.71;432479;1270;111811;-42
2022/05/01 22:15:25;;;;;;;38.70;25.50;;;;;;;8.90;51.05;98874.41;432552;1270;108853;-41
2022/05/01 22:25:32;;;;;;;42.50;27.10;;;;;;;8.75;51.37;98871.94;432588;1270;99136;-45
2022/05/01 22:56:08;;;;;;;34.70;21.90;;;;;;;8.33;52.82;98864.23;432550;1270;98828;-45
2022/05/01 23:06:36;;;;;;;47.20;25.70;;;;;;;8.19;53.13;98862.28;432498;1270;112526;-44
2022/05/01 23:16:42;;;;;;;42.60;23.70;;;;;;;8.03;53.45;98855.65;432593;1270;108566;-42
2022/05/01 23:26:49;;;;;;;41.50;26.40;;;;;;;7.77;53.96;98853.90;432511;1273;99260;-44
2022/05/01 23:36:55;;;;;;;42.60;25.30;;;;;;;7.53;54.67;98849.94;432577;1270;110766;-41
2022/05/01 23:47:02;;;;;;;45.60;25.70;;;;;;;7.18;54.79;98851.77;432447;1270;97961;-45
2022/05/01 23:57:10;;;;;;;32.30;20.20;;;;;;;6.91;54.89;98846.54;432813;1270;112618;-46
